Time;durP1;ratioP1;P1;durP2;ratioP2;P2;SDS_P1;SDS_P2;PMS_P1;PMS_P2;Temp;Humidity;BMP_temperature;BMP_pressure;BME280_temperature;BME280_humidity;BME280_pressure;Samples;Min_cycle;Max_cycle;Signal;HPM_P1;HPM_P2
2022/06/07 04:00:50;;;;;;;1.40;1.40;;;17.30;99.90;;;;;;5820339;23;20489;-62
2022/06/07 04:03:17;;;;;;;1.50;1.50;;;17.30;99.90;;;;;;5015629;28;20441;-61
2022/06/07 04:05:46;;;;;;;3.47;1.47;;;17.30;99.90;;;;;;5015376;28;20944;-61
2022/06/07 04:08:12;;;;;;;1.67;1.57;;;17.30;99.90;;;;;;5015858;28;20461;-62
2022/06/07 04:10:44;;;;;;;4.20;1.80;;;17.40;99.90;;;;;;5015514;28;20571;-61
2022/06/07 04:13:11;;;;;;;4.10;1.40;;;17.40;99.90;;;;;;5015550;28;20449;-61
2022/06/07 04:15:38;;;;;;;1.50;1.40;;;17.40;99.90;;;;;;5015141;28;20837;-62
2022/06/07 04:18:07;;;;;;;6.70;2.00;;;17.40;99.90;;;;;;5015394;28;20479;-62
2022/06/07 04:20:33;;;;;;;2.40;1.60;;;17.50;99.90;;;;;;5015505;28;20477;-63
2022/06/07 04:23:00;;;;;;;3.17;1.87;;;17.50;99.90;;;;;;5015565;28;20457;-62
2022/06/07 04:25:27;;;;;;;1.50;1.50;;;17.50;99.90;;;;;;5015373;28;20480;-61
2022/06/07 04:27:55;;;;;;;1.67;1.57;;;17.50;99.90;;;;;;5015402;28;20453;-61
2022/06/07 04:30:22;;;;;;;1.97;1.87;;;17.50;99.90;;;;;;5014800;28;20936;-62
2022/06/07 04:32:49;;;;;;;1.40;1.30;;;17.50;99.90;;;;;;5015201;28;20486;-62
2022/06/07 04:35:18;;;;;;;1.90;1.80;;;17.50;99.90;;;;;;5015360;28;20449;-61
2022/06/07 04:37:45;;;;;;;1.60;1.57;;;17.50;99.90;;;;;;5016031;28;20560;-62
2022/06/07 04:40:12;;;;;;;2.60;1.50;;;17.60;99.90;;;;;;5015954;28;20452;-61
2022/06/07 04:42:39;;;;;;;2.70;2.00;;;17.60;99.90;;;;;;5015420;28;20441;-61
2022/06/07 04:45:09;;;;;;;1.70;1.60;;;17.60;99.90;;;;;;5015081;28;20526;-63
2022/06/07 04:47:36;;;;;;;1.67;1.60;;;17.60;99.90;;;;;;5015102;28;20437;-62
2022/06/07 04:50:03;;;;;;;2.77;1.47;;;17.70;99.90;;;;;;5015065;28;20523;-62
2022/06/07 04:52:31;;;;;;;3.57;1.27;;;17.70;99.90;;;;;;5014946;28;20477;-62
2022/06/07 04:54:58;;;;;;;1.70;1.60;;;17.70;99.90;;;;;;5014972;28;20453;-62
2022/06/07 04:57:25;;;;;;;2.23;1.37;;;17.70;99.90;;;;;;5014773;28;20585;-63
2022/06/07 04:59:52;;;;;;;2.20;1.93;;;17.70;99.90;;;;;;5014749;28;20456;-63
2022/06/07 05:02:18;;;;;;;2.43;2.10;;;17.70;99.90;;;;;;5013910;28;20490;-63
2022/06/07 05:04:46;;;;;;;1.20;1.20;;;17.70;99.90;;;;;;5014877;28;20481;-63
2022/06/07 05:07:12;;;;;;;3.20;2.17;;;17.80;99.90;;;;;;5014868;28;20489;-64
2022/06/07 05:09:41;;;;;;;2.40;1.33;;;17.80;99.90;;;;;;5014334;28;20967;-62
2022/06/07 05:12:09;;;;;;;2.93;1.30;;;17.90;99.90;;;;;;5017810;28;20504;-63
2022/06/07 05:14:36;;;;;;;3.13;1.70;;;17.90;99.90;;;;;;5023872;28;20452;-63
2022/06/07 05:17:03;;;;;;;1.87;1.60;;;18.00;99.90;;;;;;5020564;28;20453;-62
2022/06/07 05:19:33;;;;;;;1.57;1.57;;;18.00;99.90;;;;;;5017137;28;20532;-62
2022/06/07 05:21:59;;;;;;;1.80;1.40;;;18.10;99.90;;;;;;5015341;28;20508;-62
2022/06/07 05:24:26;;;;;;;4.73;1.70;;;18.10;99.90;;;;;;5014325;28;20483;-63
2022/06/07 05:26:57;;;;;;;1.80;1.70;;;18.10;99.90;;;;;;5014429;28;20457;-62
2022/06/07 05:29:28;;;;;;;2.87;1.40;;;18.20;99.90;;;;;;5014326;28;20437;-62
2022/06/07 05:31:55;;;;;;;1.93;1.70;;;18.20;99.90;;;;;;5014293;28;20475;-61
2022/06/07 05:34:22;;;;;;;1.80;1.70;;;18.20;99.90;;;;;;5014328;28;20453;-62
2022/06/07 05:36:49;;;;;;;2.33;1.73;;;18.20;99.90;;;;;;5014442;28;20457;-61
2022/06/07 05:39:21;;;;;;;1.60;1.50;;;18.20;99.90;;;;;;5013823;28;20437;-61
2022/06/07 05:41:48;;;;;;;1.80;1.70;;;18.30;99.90;;;;;;5014231;28;20508;-61
2022/06/07 05:44:16;;;;;;;2.13;2.00;;;18.30;99.90;;;;;;5014185;28;20476;-61
2022/06/07 05:46:43;;;;;;;2.83;1.30;;;18.40;99.90;;;;;;5014040;28;20464;-61
2022/06/07 05:49:10;;;;;;;2.97;1.67;;;18.40;99.90;;;;;;5013941;28;20998;-61
2022/06/07 05:51:38;;;;;;;3.73;1.60;;;18.50;99.90;;;;;;5013988;28;20473;-62
2022/06/07 05:54:05;;;;;;;1.83;1.73;;;18.60;99.90;;;;;;5014021;28;20882;-62
2022/06/07 05:56:33;;;;;;;1.83;1.60;;;18.70;99.90;;;;;;5013636;28;20943;-62
2022/06/07 05:59:00;;;;;;;2.63;1.80;;;18.90;99.90;;;;;;5013986;28;20804;-62
2022/06/07 06:01:28;;;;;;;3.20;2.10;;;19.10;99.90;;;;;;5013624;28;20484;-62
2022/06/07 06:03:55;;;;;;;2.30;2.20;;;19.20;99.90;;;;;;5013829;28;20807;-61
2022/06/07 06:06:22;;;;;;;1.77;1.50;;;19.30;99.90;;;;;;5013985;28;20461;-61
2022/06/07 06:11:34;;;;;;;2.60;1.60;;;19.50;99.90;;;;;;5014317;28;20539;-61
2022/06/07 06:14:01;;;;;;;1.63;1.37;;;19.60;99.90;;;;;;5020519;28;20460;-62
2022/06/07 06:16:29;;;;;;;4.20;1.60;;;19.80;99.90;;;;;;5020480;28;20939;-62
2022/06/07 06:18:59;;;;;;;1.40;1.30;;;19.90;99.90;;;;;;5018105;28;20482;-63
2022/06/07 06:21:28;;;;;;;1.90;1.30;;;20.00;99.90;;;;;;5017232;28;20483;-64
2022/06/07 06:23:58;;;;;;;1.30;1.30;;;20.10;99.90;;;;;;5017321;28;20959;-63
2022/06/07 06:26:25;;;;;;;1.90;1.40;;;20.20;99.90;;;;;;5017597;28;20567;-64
2022/06/07 06:28:52;;;;;;;1.90;1.40;;;20.20;99.90;;;;;;5017489;28;20874;-63
2022/06/07 06:31:19;;;;;;;1.30;1.20;;;20.30;99.90;;;;;;5017175;28;20983;-63
2022/06/07 06:33:49;;;;;;;1.30;1.30;;;20.40;99.90;;;;;;5017436;28;20448;-63
2022/06/07 06:36:19;;;;;;;1.20;1.03;;;20.60;99.90;;;;;;5017483;28;20453;-63
2022/06/07 06:38:46;;;;;;;1.50;1.40;;;20.70;99.90;;;;;;5017149;28;20447;-63
2022/06/07 06:41:17;;;;;;;3.50;2.30;;;21.00;99.90;;;;;;5017328;28;20472;-64
2022/06/07 06:43:45;;;;;;;11.63;4.60;;;21.20;99.90;;;;;;5017088;28;20853;-64
2022/06/07 06:46:14;;;;;;;6.23;2.50;;;21.40;99.90;;;;;;5017175;28;20534;-65
2022/06/07 06:48:43;;;;;;;1.30;1.30;;;21.50;99.90;;;;;;5017094;28;20463;-63
2022/06/07 06:51:13;;;;;;;2.40;1.23;;;21.70;99.90;;;;;;5017096;28;20473;-63
2022/06/07 06:53:42;;;;;;;1.27;1.20;;;21.90;99.90;;;;;;5017229;28;20437;-63
2022/06/07 06:56:09;;;;;;;1.10;1.10;;;22.00;99.90;;;;;;5017150;28;20453;-63
2022/06/07 06:58:36;;;;;;;1.93;1.20;;;22.30;99.90;;;;;;5016972;28;20461;-63
2022/06/07 07:01:05;;;;;;;1.77;1.37;;;22.40;99.90;;;;;;5016630;28;20488;-63
2022/06/07 07:03:33;;;;;;;2.17;1.37;;;22.60;99.90;;;;;;5017114;28;20457;-63
2022/06/07 07:06:01;;;;;;;1.30;1.03;;;22.80;99.90;;;;;;5016538;28;20837;-62
2022/06/07 07:08:29;;;;;;;2.30;1.40;;;23.10;99.90;;;;;;5016906;28;20457;-64
2022/06/07 07:11:08;;;;;;;3.93;1.60;;;23.30;99.90;;;;;;5016670;28;20557;-64
2022/06/07 07:13:35;;;;;;;1.20;1.17;;;23.60;99.90;;;;;;5016611;28;20958;-64
2022/06/07 07:16:02;;;;;;;0.90;0.90;;;24.00;99.90;;;;;;5016568;28;20503;-63
2022/06/07 07:18:29;;;;;;;1.03;1.03;;;24.60;99.90;;;;;;5016979;28;20457;-63
2022/06/07 07:20:55;;;;;;;2.77;1.10;;;25.20;99.90;;;;;;5016623;28;20476;-64
2022/06/07 07:23:24;;;;;;;1.40;1.20;;;25.40;99.90;;;;;;5016867;28;20515;-65
2022/06/07 07:25:52;;;;;;;1.20;1.10;;;25.50;99.90;;;;;;5016681;28;20485;-64
2022/06/07 07:28:19;;;;;;;1.97;1.20;;;25.30;99.80;;;;;;5016894;28;20830;-63
2022/06/07 07:30:46;;;;;;;3.10;1.50;;;25.10;99.20;;;;;;5016518;28;20507;-64
2022/06/07 07:33:12;;;;;;;1.70;1.47;;;24.80;99.50;;;;;;5016502;28;20468;-64
2022/06/07 07:35:39;;;;;;;1.37;1.30;;;24.60;99.40;;;;;;5016360;28;20456;-63
2022/06/07 07:38:06;;;;;;;1.43;1.33;;;24.50;99.90;;;;;;5016515;28;20449;-63
2022/06/07 07:40:33;;;;;;;1.43;0.97;;;24.60;99.90;;;;;;5016091;28;20476;-64
2022/06/07 07:43:01;;;;;;;3.87;1.47;;;24.80;99.90;;;;;;5016079;28;20819;-63
2022/06/07 07:45:28;;;;;;;1.00;1.00;;;25.00;99.70;;;;;;5016141;28;20564;-63
2022/06/07 07:47:55;;;;;;;1.10;1.00;;;25.10;98.60;;;;;;5016949;28;20504;-62
2022/06/07 07:50:21;;;;;;;1.40;1.03;;;25.20;99.10;;;;;;5016281;28;20453;-63
2022/06/07 07:52:48;;;;;;;1.07;0.97;;;25.20;99.20;;;;;;5016292;28;20464;-63
2022/06/07 07:55:15;;;;;;;1.50;1.40;;;25.20;99.20;;;;;;5016049;28;20452;-63
2022/06/07 07:57:41;;;;;;;3.13;1.23;;;25.60;97.70;;;;;;5016093;28;20456;-63
2022/06/07 08:00:11;;;;;;;1.07;1.07;;;25.90;95.60;;;;;;5016625;28;20491;-64
2022/06/07 08:02:37;;;;;;;1.10;1.10;;;26.20;95.20;;;;;;5015881;28;20452;-63
2022/06/07 08:05:05;;;;;;;2.20;1.10;;;26.60;94.30;;;;;;5015858;28;20487;-63
2022/06/07 08:07:33;;;;;;;2.37;1.17;;;27.00;93.40;;;;;;5015997;28;20548;-63
2022/06/07 08:10:01;;;;;;;1.47;1.37;;;27.40;91.70;;;;;;5018275;28;20820;-62
2022/06/07 08:12:28;;;;;;;2.23;1.10;;;27.50;92.00;;;;;;5018946;28;20477;-62
2022/06/07 08:14:55;;;;;;;1.30;1.20;;;27.50;91.80;;;;;;5017185;28;20480;-62
2022/06/07 08:17:23;;;;;;;1.53;1.17;;;27.60;90.80;;;;;;5016585;28;20515;-62
2022/06/07 08:19:50;;;;;;;1.23;1.20;;;27.50;90.60;;;;;;5015657;28;20489;-61
2022/06/07 08:22:17;;;;;;;1.13;1.10;;;27.40;91.20;;;;;;5015557;28;20472;-61
2022/06/07 08:24:43;;;;;;;1.20;1.20;;;27.40;91.40;;;;;;5015312;28;20457;-62
2022/06/07 08:27:10;;;;;;;3.43;1.13;;;27.80;92.30;;;;;;5015287;28;20507;-62
2022/06/07 08:29:38;;;;;;;1.37;1.30;;;28.10;90.60;;;;;;5015424;28;20457;-63
2022/06/07 08:32:05;;;;;;;0.83;0.83;;;28.50;85.30;;;;;;5015361;28;20477;-61
2022/06/07 08:40:05;;;;;;;1.20;1.10;;;28.50;80.90;;;;;;5015126;28;20483;-63
2022/06/07 08:42:35;;;;;;;3.13;1.13;;;28.50;83.60;;;;;;5015098;28;20511;-62
2022/06/07 08:45:05;;;;;;;1.17;1.17;;;28.60;87.30;;;;;;5015939;28;20441;-62
2022/06/07 08:47:45;;;;;;;1.63;1.20;;;28.30;84.20;;;;;;5016781;28;20965;-62
2022/06/07 08:50:18;;;;;;;1.37;1.10;;;28.40;86.10;;;;;;5017221;28;20440;-62
2022/06/07 08:52:47;;;;;;;1.63;1.20;;;28.90;83.80;;;;;;5015553;28;20448;-62
2022/06/07 08:55:18;;;;;;;1.60;1.30;;;29.40;83.90;;;;;;5015021;28;20452;-63
2022/06/07 08:57:53;;;;;;;2.20;1.37;;;29.70;84.30;;;;;;5015089;28;20450;-62
2022/06/07 09:00:23;;;;;;;1.27;1.00;;;29.90;82.40;;;;;;5014771;28;20441;-63
2022/06/07 09:03:07;;;;;;;1.03;1.03;;;30.10;79.60;;;;;;5015115;28;20503;-62
2022/06/07 09:05:35;;;;;;;2.00;1.23;;;30.50;74.10;;;;;;5014937;28;20468;-63
2022/06/07 09:08:02;;;;;;;2.53;1.07;;;30.80;72.50;;;;;;5014817;28;20488;-62
2022/06/07 09:13:19;;;;;;;1.90;1.47;;;31.40;70.20;;;;;;5014686;28;20946;-62
2022/06/07 09:15:49;;;;;;;1.53;1.20;;;31.70;68.80;;;;;;5014606;28;20433;-62
2022/06/07 09:18:19;;;;;;;1.80;1.10;;;31.80;71.40;;;;;;5015760;28;20459;-62
2022/06/07 09:20:50;;;;;;;1.40;1.30;;;31.90;64.30;;;;;;5014300;28;20511;-62
2022/06/07 09:23:20;;;;;;;1.23;1.13;;;32.00;70.20;;;;;;5014460;28;20440;-62
2022/06/07 09:25:51;;;;;;;1.80;0.93;;;32.20;66.60;;;;;;5014369;28;20492;-62
2022/06/07 09:28:23;;;;;;;0.77;0.77;;;32.30;66.40;;;;;;5014761;28;20455;-64
2022/06/07 09:30:58;;;;;;;2.43;1.17;;;32.50;63.80;;;;;;5014297;28;20477;-64
2022/06/07 09:33:28;;;;;;;2.30;1.10;;;32.20;61.50;;;;;;5014408;28;20440;-64
2022/06/07 09:36:00;;;;;;;3.60;1.10;;;32.40;63.30;;;;;;5014097;28;20797;-63
2022/06/07 09:38:32;;;;;;;0.97;0.97;;;32.40;61.20;;;;;;5014482;28;20598;-63
2022/06/07 09:41:36;;;;;;;1.30;1.00;;;32.60;61.40;;;;;;5016607;28;20483;-63
2022/06/07 09:43:53;;;;;;;0.87;0.87;;;32.80;60.10;;;;;;5021041;28;20449;-63
2022/06/07 09:46:25;;;;;;;2.40;1.20;;;32.40;58.90;;;;;;5014804;28;20480;-63
2022/06/07 09:48:52;;;;;;;0.70;0.70;;;32.00;60.20;;;;;;5014479;28;20440;-63
2022/06/07 09:51:24;;;;;;;0.90;0.90;;;32.50;60.00;;;;;;5014333;28;20818;-63
2022/06/07 09:53:59;;;;;;;0.80;0.80;;;32.50;58.10;;;;;;5014429;28;20480;-63
2022/06/07 09:56:32;;;;;;;0.97;0.90;;;32.00;58.60;;;;;;5014326;28;20523;-64
2022/06/07 09:59:15;;;;;;;1.00;0.90;;;32.10;59.10;;;;;;5014298;28;20437;-64
2022/06/07 10:01:48;;;;;;;1.13;1.10;;;32.10;57.30;;;;;;5013837;28;20904;-64
2022/06/07 10:04:22;;;;;;;2.60;1.00;;;31.90;57.60;;;;;;5014667;28;20436;-63
2022/06/07 10:06:54;;;;;;;0.80;0.80;;;31.90;60.20;;;;;;5013815;28;20468;-64
2022/06/07 10:09:37;;;;;;;0.70;0.70;;;32.30;56.90;;;;;;5013980;28;20495;-64
2022/06/07 10:12:15;;;;;;;1.27;1.17;;;32.60;60.40;;;;;;5013736;28;20480;-63
2022/06/07 10:14:50;;;;;;;1.40;0.97;;;32.90;59.90;;;;;;5014034;28;20437;-63
2022/06/07 10:17:48;;;;;;;1.57;0.97;;;33.10;57.80;;;;;;5013653;28;20834;-63
2022/06/07 10:20:23;;;;;;;3.73;1.30;;;33.30;56.30;;;;;;5014064;28;20440;-63
2022/06/07 10:23:12;;;;;;;2.10;0.70;;;33.40;57.70;;;;;;5013503;28;20483;-62
2022/06/07 10:25:53;;;;;;;1.80;0.97;;;33.00;55.20;;;;;;5013442;28;20461;-63
2022/06/07 10:28:28;;;;;;;0.97;0.97;;;32.30;57.00;;;;;;5013937;28;20437;-63
2022/06/07 10:31:02;;;;;;;2.70;1.20;;;31.30;57.50;;;;;;5014070;28;20480;-62
2022/06/07 10:33:50;;;;;;;1.10;1.10;;;30.40;59.80;;;;;;5014790;28;20441;-62
2022/06/07 10:36:37;;;;;;;1.60;0.70;;;30.30;59.80;;;;;;5014993;28;20429;-64
2022/06/07 10:39:20;;;;;;;1.13;1.13;;;30.40;60.30;;;;;;5013869;28;20445;-63
2022/06/07 10:41:55;;;;;;;1.07;0.97;;;30.40;59.30;;;;;;5013929;28;20472;-63
2022/06/07 10:44:29;;;;;;;1.07;0.90;;;30.10;57.90;;;;;;5013883;28;20429;-63
2022/06/07 10:46:56;;;;;;;1.00;0.90;;;29.70;59.20;;;;;;5014008;28;20465;-64
2022/06/07 10:49:29;;;;;;;3.37;1.00;;;29.00;59.40;;;;;;5013762;28;20464;-63
2022/06/07 10:54:56;;;;;;;2.00;1.00;;;28.00;63.70;;;;;;5013688;28;20919;-63
2022/06/07 10:57:31;;;;;;;1.27;1.17;;;27.40;68.30;;;;;;5014479;28;20436;-63
2022/06/07 11:00:01;;;;;;;1.87;1.00;;;27.10;67.10;;;;;;5015935;28;20492;-63
2022/06/07 11:02:36;;;;;;;3.40;1.77;;;27.00;68.10;;;;;;5016810;28;20491;-63
2022/06/07 11:10:46;;;;;;;4.20;1.10;;;27.20;68.50;;;;;;5006164;28;20975;-63
2022/06/07 11:13:19;;;;;;;1.13;1.13;;;27.60;70.10;;;;;;5017023;28;20523;-63
2022/06/07 11:15:54;;;;;;;1.13;1.13;;;27.90;68.40;;;;;;5017090;28;20448;-64
2022/06/07 11:18:24;;;;;;;1.50;1.30;;;28.00;64.90;;;;;;5016860;28;20440;-63
2022/06/07 11:21:10;;;;;;;0.80;0.80;;;27.60;63.70;;;;;;5017132;28;20477;-62
2022/06/07 11:23:44;;;;;;;1.53;1.30;;;27.30;64.20;;;;;;5017130;28;20433;-64
2022/06/07 11:26:15;;;;;;;1.00;1.00;;;26.80;66.10;;;;;;5017232;28;20464;-62
2022/06/07 11:28:47;;;;;;;2.73;1.00;;;26.50;67.00;;;;;;5016628;28;20536;-62
2022/06/07 11:31:40;;;;;;;1.00;1.00;;;26.10;69.80;;;;;;5016618;28;20476;-62
2022/06/07 11:34:23;;;;;;;1.20;1.10;;;25.90;70.40;;;;;;5016863;28;20510;-63
2022/06/07 11:36:51;;;;;;;0.97;0.97;;;25.60;71.70;;;;;;5016775;28;20441;-62
2022/06/07 11:39:51;;;;;;;1.10;1.00;;;25.40;71.70;;;;;;5016858;28;20441;-63
2022/06/07 11:42:30;;;;;;;1.10;1.10;;;25.00;72.20;;;;;;5016306;28;21024;-63
2022/06/07 11:45:27;;;;;;;1.90;1.80;;;24.70;75.40;;;;;;5016471;28;20445;-64
2022/06/07 11:48:17;;;;;;;2.60;1.30;;;24.50;88.60;;;;;;5016369;28;20555;-64
2022/06/07 11:50:54;;;;;;;1.60;1.50;;;24.30;83.50;;;;;;5013641;28;20483;-63
2022/06/07 11:53:29;;;;;;;1.10;1.10;;;24.20;86.70;;;;;;5016853;28;20511;-63
2022/06/07 11:56:12;;;;;;;1.23;1.03;;;24.10;86.00;;;;;;5016305;28;20825;-63
2022/06/07 11:58:59;;;;;;;2.73;1.10;;;24.20;85.00;;;;;;5016330;28;20536;-63
2022/06/07 12:01:39;;;;;;;2.00;1.10;;;24.40;80.50;;;;;;5015769;28;20484;-63
2022/06/07 12:04:26;;;;;;;1.37;1.37;;;24.70;84.40;;;;;;5015983;28;20908;-62
2022/06/07 12:06:53;;;;;;;1.30;1.20;;;25.20;85.60;;;;;;5015736;28;20527;-62
2022/06/07 12:09:20;;;;;;;2.70;1.13;;;25.60;82.10;;;;;;5015680;28;20457;-62
2022/06/07 12:11:47;;;;;;;1.13;1.10;;;25.70;77.70;;;;;;5015180;28;20477;-62
2022/06/07 12:14:26;;;;;;;1.50;1.23;;;25.70;76.40;;;;;;5016141;28;20957;-62
2022/06/07 12:16:58;;;;;;;2.53;1.47;;;25.70;76.80;;;;;;5015892;28;20495;-62
2022/06/07 12:19:26;;;;;;;1.00;1.00;;;25.40;76.10;;;;;;5015750;28;20978;-62
2022/06/07 12:21:58;;;;;;;1.43;1.20;;;25.30;76.10;;;;;;5015844;28;20477;-62
2022/06/07 12:24:25;;;;;;;1.63;1.47;;;25.20;76.90;;;;;;5015663;28;20468;-62
2022/06/07 12:26:53;;;;;;;1.50;1.40;;;25.00;76.90;;;;;;5015823;28;20473;-62
2022/06/07 12:29:24;;;;;;;5.43;1.93;;;24.90;76.00;;;;;;5015378;28;20457;-62
2022/06/07 12:31:53;;;;;;;1.77;1.57;;;24.80;78.00;;;;;;5015515;28;20563;-62
2022/06/07 12:34:22;;;;;;;1.40;1.27;;;24.60;79.10;;;;;;5015522;28;20464;-63
2022/06/07 12:36:54;;;;;;;4.53;1.10;;;24.40;78.20;;;;;;5015146;28;20877;-62
2022/06/07 12:39:22;;;;;;;1.30;1.30;;;24.30;78.40;;;;;;5015198;28;20859;-62
2022/06/07 15:16:19;;;;;;;1.50;1.40;;;25.50;81.30;;;;;;5017351;28;20455;-66
2022/06/07 15:18:50;;;;;;;1.90;1.20;;;25.40;80.30;;;;;;5016874;28;20487;-66
2022/06/07 15:21:19;;;;;;;1.17;1.13;;;25.20;81.50;;;;;;5017043;28;20441;-66
2022/06/07 15:23:46;;;;;;;1.17;1.17;;;25.10;83.30;;;;;;5017096;28;20453;-66
2022/06/07 15:26:15;;;;;;;1.10;1.10;;;25.00;83.00;;;;;;5016657;28;20464;-66
2022/06/07 15:28:42;;;;;;;2.30;1.13;;;25.00;82.30;;;;;;5016873;28;20457;-66
2022/06/07 15:31:09;;;;;;;1.40;1.30;;;25.00;82.90;;;;;;5016863;28;20452;-66
2022/06/07 15:33:36;;;;;;;3.03;1.20;;;24.90;85.50;;;;;;5016810;28;20483;-66
2022/06/07 15:36:05;;;;;;;2.77;1.30;;;24.90;87.70;;;;;;5016656;28;20462;-65
2022/06/07 15:38:35;;;;;;;1.43;1.20;;;24.90;87.00;;;;;;5016730;28;20481;-65
2022/06/07 15:42:46;;;;;;;1.30;1.20;;;25.00;85.80;;;;;;5016621;28;20469;-65
2022/06/07 15:43:48;;;;;;;1.50;1.40;;;25.00;85.40;;;;;;5016243;28;20453;-66
2022/06/07 15:46:14;;;;;;;1.30;1.30;;;25.20;87.20;;;;;;5016386;28;20464;-67
2022/06/07 15:48:44;;;;;;;1.03;1.03;;;25.40;83.40;;;;;;5017041;28;20198;-66
2022/06/07 15:51:12;;;;;;;2.10;1.30;;;25.50;83.80;;;;;;5016379;28;20452;-66
2022/06/07 15:53:40;;;;;;;1.10;1.10;;;25.50;84.50;;;;;;5016379;28;20484;-66
2022/06/07 15:56:08;;;;;;;1.03;1.03;;;25.50;85.80;;;;;;5016177;28;20932;-66
2022/06/07 16:01:21;;;;;;;2.57;1.43;;;25.30;84.10;;;;;;5015962;28;20468;-66
2022/06/07 16:03:48;;;;;;;1.70;1.27;;;25.10;84.70;;;;;;5016274;28;20489;-66
2022/06/07 16:06:17;;;;;;;1.37;1.30;;;25.00;84.60;;;;;;5016095;28;20452;-66
2022/06/07 16:08:44;;;;;;;2.33;1.10;;;24.90;84.20;;;;;;5015769;28;20460;-66
2022/06/07 16:11:13;;;;;;;1.10;1.00;;;24.90;85.50;;;;;;5015777;28;20457;-67
2022/06/07 16:13:40;;;;;;;1.20;1.20;;;25.00;86.80;;;;;;5016274;28;20526;-66
2022/06/07 16:16:08;;;;;;;1.20;1.10;;;25.00;86.60;;;;;;5016168;28;20453;-66
2022/06/07 16:18:35;;;;;;;1.60;1.30;;;25.30;87.90;;;;;;5016220;28;20465;-66
2022/06/07 16:21:02;;;;;;;1.40;1.30;;;25.40;85.50;;;;;;5015654;28;20959;-67
2022/06/07 16:23:31;;;;;;;1.00;0.90;;;25.40;86.50;;;;;;5015382;28;20833;-66
2022/06/07 16:25:58;;;;;;;2.20;1.10;;;25.30;84.50;;;;;;5015740;28;20464;-67
2022/06/07 16:33:54;;;;;;;1.20;1.20;;;25.10;86.30;;;;;;5015700;28;20523;-67
2022/06/07 16:36:23;;;;;;;1.20;1.20;;;24.90;86.60;;;;;;5015543;28;20453;-67
2022/06/07 16:38:53;;;;;;;4.27;1.30;;;24.80;86.80;;;;;;5015415;28;20465;-67
2022/06/07 16:41:21;;;;;;;4.93;1.60;;;24.70;87.90;;;;;;5015057;28;20958;-66
2022/06/07 16:44:04;;;;;;;5.37;1.67;;;24.50;88.10;;;;;;5015601;28;20461;-67
2022/06/07 16:46:33;;;;;;;1.67;1.20;;;24.20;89.60;;;;;;5015220;28;20473;-66
2022/06/07 16:49:01;;;;;;;1.67;1.20;;;23.50;91.50;;;;;;5015126;28;20457;-66
2022/06/07 16:51:29;;;;;;;3.00;1.10;;;23.10;92.00;;;;;;5015802;28;20460;-65
2022/06/07 16:53:58;;;;;;;2.53;1.10;;;22.70;93.50;;;;;;5015194;28;20966;-66
2022/06/07 16:56:26;;;;;;;3.10;1.87;;;22.30;95.50;;;;;;5014934;28;20453;-66
2022/06/07 16:58:54;;;;;;;1.23;1.13;;;22.00;99.90;;;;;;5015220;28;20519;-66
2022/06/07 17:01:21;;;;;;;2.83;1.30;;;21.50;99.90;;;;;;5014824;28;20480;-65
2022/06/07 17:03:48;;;;;;;1.80;0.80;;;21.10;99.90;;;;;;5015284;28;20456;-67
2022/06/07 17:06:18;;;;;;;2.53;1.30;;;20.70;99.90;;;;;;5014966;28;20835;-66
2022/06/07 17:08:46;;;;;;;1.67;1.00;;;20.40;99.90;;;;;;5015011;28;20523;-66
2022/06/07 17:11:14;;;;;;;1.70;1.60;;;20.20;99.90;;;;;;5015203;28;20547;-66
2022/06/07 17:13:41;;;;;;;7.67;1.90;;;19.90;99.90;;;;;;5014661;28;20530;-66
2022/06/07 17:16:09;;;;;;;5.60;1.47;;;19.80;99.90;;;;;;5014693;28;20948;-66
2022/06/07 17:18:37;;;;;;;1.13;1.00;;;19.70;99.90;;;;;;5014678;28;20507;-66
2022/06/07 17:21:04;;;;;;;1.60;1.10;;;19.60;99.90;;;;;;5014777;28;20507;-66
2022/06/07 17:23:32;;;;;;;0.87;0.87;;;19.50;99.90;;;;;;5014661;28;20477;-66
2022/06/07 17:26:00;;;;;;;1.23;1.13;;;19.50;99.90;;;;;;5014490;28;20457;-66
2022/06/07 17:28:28;;;;;;;1.93;1.00;;;19.40;99.90;;;;;;5014409;28;20472;-66
2022/06/07 17:30:55;;;;;;;1.30;1.20;;;19.40;99.90;;;;;;5014687;28;20503;-66
2022/06/07 17:33:22;;;;;;;1.67;1.57;;;19.30;99.90;;;;;;5014127;28;21042;-65
2022/06/07 17:35:49;;;;;;;0.90;0.90;;;19.30;99.90;;;;;;5014530;28;20456;-67
2022/06/07 17:38:15;;;;;;;3.50;0.90;;;19.30;99.90;;;;;;5015029;28;20448;-66
2022/06/07 17:40:42;;;;;;;0.97;0.97;;;19.20;99.90;;;;;;5014324;28;20459;-65
2022/06/07 17:43:09;;;;;;;2.90;1.00;;;19.10;99.90;;;;;;5014184;28;20476;-65
2022/06/07 17:45:37;;;;;;;4.33;0.80;;;19.00;99.90;;;;;;5014370;28;20457;-66
2022/06/07 17:48:05;;;;;;;1.23;0.90;;;19.00;99.90;;;;;;5013967;28;20472;-65
2022/06/07 17:50:34;;;;;;;1.57;1.10;;;19.00;99.90;;;;;;5014314;28;20457;-65
2022/06/07 17:53:01;;;;;;;2.10;1.10;;;19.00;99.90;;;;;;5014794;28;20481;-66
2022/06/07 17:55:30;;;;;;;1.83;1.07;;;19.00;99.90;;;;;;5014915;28;20479;-67
2022/06/07 17:57:57;;;;;;;1.33;0.80;;;19.10;99.90;;;;;;5014741;28;20448;-66
2022/06/07 18:00:26;;;;;;;1.57;0.67;;;19.10;99.90;;;;;;5014667;28;20475;-68
2022/06/07 18:02:57;;;;;;;2.53;1.10;;;19.10;99.90;;;;;;5014291;28;20995;-65
2022/06/07 18:05:27;;;;;;;1.20;1.20;;;19.20;99.90;;;;;;5014832;28;20448;-67
2022/06/07 18:07:55;;;;;;;1.20;1.20;;;19.30;99.90;;;;;;5014752;28;20999;-66
2022/06/07 18:10:22;;;;;;;0.90;0.90;;;19.40;99.90;;;;;;5018384;28;20940;-67
2022/06/07 18:12:50;;;;;;;4.03;1.20;;;19.40;99.90;;;;;;5018333;28;20480;-66
2022/06/07 18:15:20;;;;;;;0.90;0.90;;;19.40;99.90;;;;;;5018515;28;20443;-68
2022/06/07 18:17:47;;;;;;;1.00;1.00;;;19.40;99.90;;;;;;5018073;28;20948;-67
2022/06/07 18:20:17;;;;;;;1.77;1.60;;;19.50;99.90;;;;;;5017992;28;20465;-67
2022/06/07 18:22:44;;;;;;;0.87;0.87;;;19.50;99.90;;;;;;5018770;28;20991;-67
2022/06/07 18:25:12;;;;;;;0.90;0.90;;;19.60;99.90;;;;;;5018609;28;20459;-66
2022/06/07 18:27:40;;;;;;;1.00;1.00;;;19.60;99.90;;;;;;5018122;28;20584;-66
2022/06/07 18:30:10;;;;;;;1.33;1.30;;;19.60;99.90;;;;;;5018185;28;20456;-66
2022/06/07 18:32:37;;;;;;;1.43;1.00;;;19.50;99.90;;;;;;5017801;28;20480;-66
2022/06/07 18:35:07;;;;;;;1.47;1.37;;;19.50;99.90;;;;;;5019046;28;20449;-67
2022/06/07 18:37:35;;;;;;;1.50;1.40;;;19.50;99.90;;;;;;5018104;28;20475;-68
2022/06/07 18:40:02;;;;;;;1.23;1.20;;;19.60;99.90;;;;;;5017872;28;20870;-67
2022/06/07 18:42:29;;;;;;;1.00;1.00;;;19.60;99.90;;;;;;5017990;28;20483;-67
2022/06/07 18:44:56;;;;;;;2.07;1.00;;;19.60;99.90;;;;;;5017964;28;20460;-67
2022/06/07 18:47:26;;;;;;;4.00;1.70;;;19.60;99.90;;;;;;5017896;28;20463;-67
2022/06/07 18:49:53;;;;;;;1.30;1.00;;;19.50;99.90;;;;;;5018352;28;20456;-67
2022/06/07 18:52:20;;;;;;;1.50;1.20;;;19.50;99.90;;;;;;5018135;28;20994;-66
2022/06/07 18:54:48;;;;;;;2.03;1.50;;;19.50;99.90;;;;;;5018496;28;20452;-67
2022/06/07 18:57:15;;;;;;;1.07;1.07;;;19.40;99.90;;;;;;5018077;28;20463;-67
2022/06/07 18:59:42;;;;;;;1.83;1.00;;;19.30;99.90;;;;;;5017775;28;20460;-67
2022/06/07 19:02:15;;;;;;;1.70;1.60;;;19.20;99.90;;;;;;5017902;28;20483;-66
2022/06/07 19:04:42;;;;;;;1.43;1.33;;;19.00;99.90;;;;;;5018015;28;20441;-67
2022/06/07 19:07:09;;;;;;;1.83;1.67;;;18.80;99.90;;;;;;5017455;28;20453;-66
2022/06/07 19:09:41;;;;;;;2.60;1.10;;;18.80;99.90;;;;;;5017762;28;20834;-67
2022/06/07 19:12:10;;;;;;;1.97;1.50;;;18.80;99.90;;;;;;5017470;28;21017;-67
2022/06/07 19:14:38;;;;;;;1.60;1.33;;;18.70;99.90;;;;;;5017633;28;20460;-66
2022/06/07 19:17:05;;;;;;;2.30;1.27;;;18.70;99.90;;;;;;5017319;28;20480;-67
2022/06/07 19:19:32;;;;;;;3.47;1.60;;;18.70;99.90;;;;;;5016262;28;20452;-67
2022/06/07 19:21:59;;;;;;;1.37;1.20;;;18.60;99.90;;;;;;5017444;28;20820;-67
2022/06/07 19:24:26;;;;;;;1.30;1.20;;;18.70;99.90;;;;;;5016816;28;20971;-66
2022/06/07 19:26:55;;;;;;;3.30;1.50;;;18.70;99.90;;;;;;5017067;28;20452;-67
2022/06/07 19:29:24;;;;;;;2.97;1.77;;;18.70;99.90;;;;;;5017062;28;20859;-66
2022/06/07 19:31:51;;;;;;;1.60;1.50;;;18.60;99.90;;;;;;5017153;28;20563;-67
2022/06/07 19:34:19;;;;;;;1.60;1.50;;;18.60;99.90;;;;;;5017375;28;20453;-67
2022/06/07 19:36:45;;;;;;;2.83;1.80;;;18.50;99.90;;;;;;5017322;28;20460;-66
2022/06/07 19:39:12;;;;;;;2.20;1.90;;;18.50;99.90;;;;;;5017752;28;20448;-69
2022/06/07 19:41:39;;;;;;;1.73;1.63;;;18.40;99.90;;;;;;5017468;28;20453;-67
2022/06/07 19:44:06;;;;;;;1.60;1.50;;;18.40;99.90;;;;;;5017647;28;20457;-66
2022/06/07 19:46:35;;;;;;;1.50;1.40;;;18.30;99.90;;;;;;5017349;28;20543;-67
2022/06/07 19:49:01;;;;;;;1.40;1.40;;;18.20;99.90;;;;;;5017503;28;20484;-67
2022/06/07 19:51:28;;;;;;;3.20;1.90;;;18.20;99.90;;;;;;5017172;28;20453;-66
2022/06/07 19:54:01;;;;;;;3.23;1.77;;;18.20;99.90;;;;;;5016963;28;20452;-66
2022/06/07 19:56:29;;;;;;;2.10;1.80;;;18.10;99.90;;;;;;5016911;28;20763;-66
2022/06/07 19:58:55;;;;;;;1.60;1.50;;;18.10;99.90;;;;;;5016339;28;20460;-67
2022/06/07 20:01:22;;;;;;;1.93;1.83;;;18.00;99.90;;;;;;5016829;28;20452;-66
2022/06/07 20:03:51;;;;;;;2.00;1.80;;;18.00;99.90;;;;;;5016683;28;20561;-67